Latest Weather Observations for Nullo Mountain

IDN60801

Issued at 4:32 pm EST Tuesday 3 May 2016 (issued every 30 minutes, with the page automatically refreshed every 10 minutes)

About weather observations | Map of weather stations | Latest weather observations for NSW | Other Formats
Station Details ID: 062100 Name: NULLO MOUNTAIN AWS Lat: -32.72 Lon: 150.23 Height: 1130.0 m
Data from the previous 72 hours. | See also: Recent months at Nullo Mountain
Date/Time
EST
Temp
°C
App
Temp
°C
Dew
Point
Rel
Hum
%
Delta-T
°C
Wind Press
QNH
hPa
Press
MSL
hPa
Rain
since 9 am
mm
Dir
 
Spd
km/h
Gust
km/h
Spd
kts
Gust
kts
03/04:30pm 12.7 9.0 6.5 66 3.2 NW 15 26 8 14 - - 0.0
03/04:00pm 13.2 9.6 6.8 65 3.3 NW 15 26 8 14 - - 0.0
03/03:30pm 13.6 9.7 6.9 64 3.5 NW 17 33 9 18 - - 0.0
03/03:00pm 14.3 10.4 7.1 62 3.7 NW 17 26 9 14 - - 0.0
03/02:30pm 14.4 10.5 7.0 61 3.8 NW 17 26 9 14 - - 0.0
03/02:00pm 14.3 10.5 7.4 63 3.6 NW 17 30 9 16 - - 0.0
03/01:30pm 13.9 10.1 7.4 65 3.4 NW 17 28 9 15 - - 0.0
03/01:00pm 13.7 10.0 8.1 69 3.0 NW 17 30 9 16 - - 0.0
03/12:30pm 13.6 10.1 8.7 72 2.6 NW 17 39 9 21 - - 0.0
03/12:00pm 11.7 8.9 8.4 80 1.7 WNW 13 24 7 13 - - 0.0
03/11:30am 13.0 9.9 8.7 75 2.3 NW 15 28 8 15 - - 0.0
03/11:00am 12.2 8.7 8.7 79 1.9 NW 17 28 9 15 - - 0.0
03/10:30am 10.8 7.5 9.7 93 0.6 NW 17 30 9 16 - - 0.0
03/10:00am 10.2 7.5 10.2 100 0.0 NW 15 32 8 17 - - 0.0
03/09:30am 9.8 6.9 9.8 100 0.0 NW 15 26 8 14 - - 0.0
03/09:00am 9.9 7.5 9.9 100 0.0 NW 13 20 7 11 - - 1.4
03/08:30am 9.7 6.8 9.7 100 0.0 WNW 15 26 8 14 - - 1.4
03/08:00am 9.9 7.5 9.9 100 0.0 NW 13 26 7 14 - - 1.2
03/07:30am 9.9 7.8 9.9 100 0.0 NW 11 20 6 11 - - 1.0
03/07:00am 9.9 8.2 9.9 100 0.0 NW 9 17 5 9 - - 1.0
03/06:30am 9.9 7.8 9.9 100 0.0 NW 11 22 6 12 - - 1.0
03/06:00am 10.0 8.0 10.0 100 0.0 WNW 11 17 6 9 - - 1.0
03/05:30am 10.1 7.7 10.1 100 0.0 WNW 13 28 7 15 - - 1.0
03/05:00am 10.2 8.6 10.2 100 0.0 WNW 9 22 5 12 - - 1.0
03/04:30am 10.3 7.6 10.3 100 0.0 WNW 15 28 8 15 - - 1.0
03/04:00am 10.7 8.9 10.7 100 0.0 WNW 11 20 6 11 - - 1.0
03/03:30am 11.0 8.9 11.0 100 0.0 NW 13 28 7 15 - - 0.8
03/03:00am 11.2 9.5 11.2 100 0.0 NW 11 19 6 10 - - 0.8
03/02:30am 11.2 8.7 11.2 100 0.0 NW 15 28 8 15 - - 0.8
03/02:00am 11.1 8.2 11.1 100 0.0 NW 17 28 9 15 - - 0.8
03/01:30am 11.4 9.4 11.4 100 0.0 NW 13 24 7 13 - - 0.8
03/01:00am 11.4 9.8 11.4 100 0.0 NW 11 20 6 11 - - 0.6
03/12:30am 11.4 9.0 11.4 100 0.0 NNW 15 28 8 15 - - 0.4
03/12:00am 11.4 8.6 11.4 100 0.0 NNW 17 30 9 16 - - 0.4
 
Date/Time
EST
Temp
°C
App
Temp
°C
Dew
Point
Rel
Hum
%
Delta-T
°C
Wind Press
QNH
hPa
Press
MSL
hPa
Rain
since 9 am
mm
Dir
 
Spd
km/h
Gust
km/h
Spd
kts
Gust
kts
02/11:30pm 11.3 8.9 11.3 100 0.0 NNW 15 30 8 16 - - 0.4
02/11:00pm 11.3 8.9 11.3 100 0.0 NNW 15 26 8 14 - - 0.4
02/10:30pm 11.0 7.7 11.0 100 0.0 NNW 19 32 10 17 - - 0.4
02/10:00pm 10.8 8.0 10.0 95 0.4 NNW 15 22 8 12 - - 0.4
02/09:30pm 10.7 8.5 9.3 91 0.7 NNW 11 20 6 11 - - 0.4
02/09:00pm 10.3 8.4 8.9 91 0.7 NNW 9 19 5 10 - - 0.4
02/08:30pm 10.5 8.6 8.9 90 0.8 NNW 9 15 5 8 - - 0.2
02/08:00pm 10.7 8.2 8.3 85 1.2 NNW 11 17 6 9 - - 0.0
02/07:30pm 11.3 9.5 7.8 79 1.8 NW 7 19 4 10 - - 0.0
02/07:00pm 11.3 9.1 7.8 79 1.8 NW 9 15 5 8 - - 0.0
02/06:30pm 11.6 9.4 7.7 77 2.0 NW 9 17 5 9 - - 0.0
02/06:00pm 11.8 8.8 7.7 76 2.1 NNW 13 22 7 12 - - 0.0
02/05:30pm 12.0 9.4 7.7 75 2.2 NNW 11 24 6 13 - - 0.0
02/05:00pm 12.2 10.4 9.4 83 1.5 NW 9 19 5 10 - - 0.0
02/04:30pm 12.5 10.7 9.5 82 1.6 NW 9 15 5 8 - - 0.0
02/04:00pm 12.7 11.3 9.5 81 1.7 NW 7 13 4 7 - - 0.0
02/03:30pm 12.9 11.0 9.2 78 2.0 NW 9 15 5 8 - - 0.0
02/03:00pm 13.2 10.9 8.9 75 2.3 NW 11 20 6 11 - - 0.0
02/02:30pm 13.4 11.1 8.9 74 2.4 NW 11 20 6 11 - - 0.0
02/02:00pm 13.9 11.6 8.9 72 2.7 NW 11 19 6 10 - - 0.0
02/01:30pm 14.4 12.2 9.4 72 2.7 NW 11 20 6 11 - - 0.0
02/01:00pm 14.8 12.8 10.2 74 2.5 NW 11 19 6 10 - - 0.0
02/12:30pm 15.0 13.3 9.8 71 2.9 WNW 9 19 5 10 - - 0.0
02/12:00pm 14.9 13.1 9.5 70 3.0 NW 9 17 5 9 - - 0.0
02/11:30am 14.8 12.8 10.0 73 2.6 NW 11 20 6 11 - - 0.0
02/11:00am 14.5 12.1 8.7 68 3.1 NW 11 22 6 12 - - 0.0
02/10:30am 13.8 11.1 9.0 73 2.6 NW 13 24 7 13 - - 0.0
02/10:00am 13.2 10.2 9.3 77 2.1 NNW 15 26 8 14 - - 0.0
02/09:30am 13.2 11.3 10.4 83 1.5 NNW 11 20 6 11 - - 0.0
02/09:00am 12.4 10.3 9.6 83 1.5 NW 11 22 6 12 - - 0.0
02/08:30am 11.9 9.7 9.3 84 1.4 NW 11 17 6 9 - - 0.0
02/08:00am 11.1 8.7 8.7 85 1.3 NW 11 20 6 11 - - 0.0
02/07:30am 10.4 8.0 8.5 88 1.0 NNW 11 17 6 9 - - 0.0
02/07:00am 9.7 7.5 7.8 88 1.0 NNW 9 15 5 8 - - 0.0
02/06:30am 8.9 6.9 7.0 88 1.0 NNW 7 11 4 6 - - 0.0
02/06:00am 8.8 6.8 6.9 88 0.9 NW 7 15 4 8 - - 0.0
02/05:30am 9.4 7.4 7.2 86 1.1 NW 7 15 4 8 - - 0.0
02/05:00am 9.7 7.7 7.3 85 1.2 NW 7 11 4 6 - - 0.0
02/04:30am 9.4 7.6 7.2 86 1.1 NW 6 9 3 5 - - 0.0
02/04:00am 9.3 7.5 7.1 86 1.1 NW 6 11 3 6 - - 0.0
02/03:30am 8.2 6.0 5.5 83 1.3 NW 6 9 3 5 - - 0.0
02/03:00am 8.0 5.8 5.5 84 1.2 WNW 6 9 3 5 - - 0.0
02/02:30am 8.8 6.6 6.4 85 1.2 WNW 7 13 4 7 - - 0.0
02/02:00am 9.0 6.8 6.4 84 1.3 WNW 7 11 4 6 - - 0.0
02/01:30am 9.8 7.9 7.4 85 1.2 WNW 7 13 4 7 - - 0.0
02/01:00am 9.8 8.1 8.2 90 0.8 WNW 7 15 4 8 - - 0.0
02/12:30am 10.5 9.1 9.7 95 0.4 WNW 7 15 4 8 - - 0.0
02/12:00am 11.1 9.5 10.3 95 0.4 WNW 9 20 5 11 - - 0.0
 
Date/Time
EST
Temp
°C
App
Temp
°C
Dew
Point
Rel
Hum
%
Delta-T
°C
Wind Press
QNH
hPa
Press
MSL
hPa
Rain
since 9 am
mm
Dir
 
Spd
km/h
Gust
km/h
Spd
kts
Gust
kts
01/11:30pm 11.6 9.8 11.0 96 0.3 WNW 11 22 6 12 - - 0.0
01/11:00pm 12.0 10.4 11.4 96 0.3 NW 11 26 6 14 - - 0.0
01/10:30pm 12.3 9.5 11.5 95 0.4 WNW 17 37 9 20 - - 0.0
01/10:00pm 12.7 10.5 12.2 97 0.3 NW 15 32 8 17 - - 0.0
01/09:30pm 13.0 11.0 12.7 98 0.2 WNW 15 32 8 17 - - 0.0
01/09:00pm 13.1 11.5 12.8 98 0.2 NW 13 30 7 16 - - 0.0
01/08:30pm 13.2 11.3 12.9 98 0.2 NW 15 26 8 14 - - 0.0
01/08:00pm 13.5 12.0 13.0 97 0.3 NW 13 24 7 13 - - 0.0
01/07:30pm 13.6 11.8 13.3 98 0.2 NW 15 22 8 12 - - 0.0
01/07:00pm 13.5 12.4 13.2 98 0.2 NW 11 24 6 13 - - 0.0
01/06:30pm 13.5 12.3 12.7 95 0.5 NW 11 22 6 12 - - 0.0
01/06:00pm 13.6 12.2 12.2 91 0.8 WNW 11 22 6 12 - - 0.0
01/05:30pm 14.0 12.2 12.2 89 1.0 NW 13 26 7 14 - - 0.0
01/05:00pm 14.7 12.2 12.4 86 1.3 NW 17 32 9 17 - - 0.0
01/04:30pm 14.7 12.2 12.4 86 1.3 NW 17 32 9 17 - - 0.0
01/04:00pm 14.9 12.7 12.2 84 1.6 NW 15 32 8 17 - - 0.0
01/03:30pm 15.7 14.0 12.6 82 1.8 NW 13 26 7 14 - - 0.0
01/03:00pm 15.6 12.7 12.4 81 1.9 WNW 19 41 10 22 - - 0.0
01/02:30pm 15.8 14.0 13.3 85 1.5 WNW 15 28 8 15 - - 0.0
01/02:00pm 15.7 13.8 13.0 84 1.6 WNW 15 30 8 16 - - 0.0
01/01:30pm 15.2 12.9 13.1 87 1.2 WNW 17 37 9 20 - - 0.0
01/01:00pm 15.3 13.3 13.8 91 0.9 WNW 17 33 9 18 - - 0.0
01/12:30pm 14.2 12.1 13.7 97 0.3 WNW 17 35 9 19 - - 0.0
01/12:00pm 13.9 12.3 13.9 100 0.0 NW 15 28 8 15 - - 0.0
01/11:30am 13.6 11.9 13.6 100 0.0 NNW 15 22 8 12 - - 0.0
01/11:00am 13.8 12.2 13.8 100 0.0 NW 15 22 8 12 - - 0.0
01/10:30am 13.6 11.9 13.6 100 0.0 NW 15 28 8 15 - - 0.0
01/10:00am 13.2 11.4 13.2 100 0.0 NW 15 26 8 14 - - 0.0
01/09:30am 13.2 11.0 13.2 100 0.0 NNW 17 28 9 15 - - 0.0
01/09:00am 13.0 10.7 13.0 100 0.0 NNW 17 26 9 14 - - 34.0
01/08:30am 13.0 11.1 13.0 100 0.0 NW 15 28 8 15 - - 34.0
01/08:00am 12.9 11.0 12.9 100 0.0 WNW 15 26 8 14 - - 33.8
01/07:30am 13.2 11.4 13.2 100 0.0 WNW 15 32 8 17 - - 31.8
01/07:00am 13.3 11.5 13.3 100 0.0 WNW 15 33 8 18 - - 30.0
01/06:30am 13.4 10.9 13.4 100 0.0 WNW 19 44 10 24 - - 27.8
01/06:00am 13.8 11.2 13.8 100 0.0 WNW 20 39 11 21 - - 23.6
01/05:30am 13.7 12.0 13.7 100 0.0 NW 15 30 8 16 - - 19.8
01/05:00am 15.2 12.7 13.4 89 1.1 NNW 19 37 10 20 - - 10.4
01/04:30am 15.6 12.6 13.6 88 1.2 NNW 22 33 12 18 - - 10.2
01/04:00am 15.1 13.2 13.0 87 1.2 NNW 15 32 8 17 - - 10.2
01/03:30am 15.0 12.9 12.3 84 1.6 NNW 15 26 8 14 - - 10.2
01/03:00am 14.6 12.1 12.3 86 1.3 NNW 17 26 9 14 - - 10.2
01/02:30am 13.9 11.6 11.8 87 1.2 NNW 15 20 8 11 - - 10.2
01/02:00am 13.8 11.2 12.0 89 1.0 NNW 17 22 9 12 - - 10.2
01/01:30am 13.1 11.6 13.1 100 0.0 N 13 22 7 12 - - 10.2
01/01:00am 13.1 11.9 12.9 99 0.1 N 11 17 6 9 - - 10.2
01/12:30am 12.7 11.5 12.7 100 0.0 N 11 19 6 10 - - 10.2
01/12:00am 13.4 12.5 12.5 94 0.5 N 9 13 5 7 - - 10.0
 
Date/Time
EST
Temp
°C
App
Temp
°C
Dew
Point
Rel
Hum
%
Delta-T
°C
Wind Press
QNH
hPa
Press
MSL
hPa
Rain
since 9 am
mm
Dir
 
Spd
km/h
Gust
km/h
Spd
kts
Gust
kts
30/11:30pm 13.4 12.6 12.9 97 0.3 NNW 9 13 5 7 - - 10.0
30/11:00pm 13.0 12.6 13.0 100 0.0 N 7 11 4 6 - - 10.0
30/10:30pm 12.8 12.3 12.8 100 0.0 N 7 11 4 6 - - 10.0
30/10:00pm 13.4 12.8 13.4 100 0.0 N 9 15 5 8 - - 10.0
30/09:30pm 13.7 13.5 13.7 100 0.0 N 7 13 4 7 - - 10.0
30/09:00pm 14.2 14.2 14.2 100 0.0 NNW 7 13 4 7 - - 10.0
30/08:30pm 14.2 13.5 14.2 100 0.0 NNW 11 24 6 13 - - 10.0
30/08:00pm 14.2 14.4 14.2 100 0.0 NW 6 9 3 5 - - 10.0
30/07:30pm 14.0 14.1 14.0 100 0.0 NNW 6 9 3 5 - - 10.0
30/07:00pm 13.8 13.9 13.8 100 0.0 NNW 6 9 3 5 - - 10.0
30/06:30pm 13.4 13.7 13.4 100 0.0 NW 4 6 2 3 - - 10.0
30/06:00pm 14.0 14.1 14.0 100 0.0 NNW 6 9 3 5 - - 10.0
30/05:30pm 14.1 14.6 14.1 100 0.0 NW 4 9 2 5 - - 10.0
30/05:00pm 14.3 14.5 14.3 100 0.0 WNW 6 11 3 6 - - 10.0

Other Formats:

Comma delimited format used in spreadsheet applications
http://www.bom.gov.au/fwo/IDN60801/IDN60801.94754.axf

JavaScript Object Notation format (JSON) in row-major order
http://www.bom.gov.au/fwo/IDN60801/IDN60801.94754.json